Terminal Aerodrome Forecast
Issued by NWS Blacksburg, VA

Current Version | Previous Version | Graphics & Text | Print | Product List | Glossary On
Versions: 1 2 3 4 5 6 7 8 9 10 11 12 13 14 15 16 17 18 19
000
FTUS41 KRNK 170308 AAA
TAFBLF
TAF AMD
KBLF 170308Z 1703/1724 31006KT P6SM BKN012
     FM170600 30004KT P6SM BKN020
     FM171000 VRB03KT P6SM SCT035
     FM171600 19007KT P6SM SCT035=

USA.gov is the U.S. government's official web portal to all federal, state and local government web resources and services.